EWG7SV EDDH-LEIB
Flight info
| Callsign | EWG7SV |
|---|---|
| Flight time | N/A |
| Altitude | 23000 |
| Route | IDEKO7G IDEKO N850 PIROT/N0452F350 N850 XAROL/N0454F340 DCT BOMBI DCT GIGET DCT ABUKA/N0455F360 DCT KRH DCT NATOR/N0457F350 DCT LUTIX DCT BENOT DCT NEMOS DCT GEVEA DCT INCUS DCT BALSI DCT RETNO DCT TUPOX DCT MTG DCT DIVKO DCT VATIR/N0463F310 DCT PIVUS DCT SULID DCT DIMIB DCT POS |
| Aircraft | A320/M-SDE3FGHIRWY/LB1 |
Departure
| Time | 2026-05-05 20:38 |
|---|---|
| Airport | Hamburg Helmut Schmidt Airport (EDDH) |
Arrival
| Time | N/A |
|---|---|
| Airport | Ibiza Airport (LEIB) |
| Time | Latitude | Longitude | Altitude | Speed | Heading |
|---|---|---|---|---|---|
| 2026-05-05 20:07 | 53.63206 | 10.00361 | 49 ft | 0 kts | 86° |
| 2026-05-05 20:31 | 53.63205 | 10.00336 | 49 ft | 4 kts | 86° |
| 2026-05-05 20:31 | 53.63203 | 10.00291 | 49 ft | 4 kts | 88° |
| 2026-05-05 20:31 | 53.63203 | 10.00246 | 49 ft | 4 kts | 91° |
| 2026-05-05 20:32 | 53.63205 | 10.00206 | 49 ft | 3 kts | 109° |
| 2026-05-05 20:32 | 53.63210 | 10.00187 | 49 ft | 2 kts | 149° |
| 2026-05-05 20:32 | 53.63220 | 10.00179 | 43 ft | 2 kts | 173° |
| 2026-05-05 20:32 | 53.63231 | 10.00177 | 47 ft | 2 kts | 177° |
| 2026-05-05 20:33 | 53.63234 | 10.00177 | 46 ft | 0 kts | 177° |
| 2026-05-05 20:35 | 53.63207 | 10.00180 | 48 ft | 8 kts | 176° |
| 2026-05-05 20:35 | 53.63144 | 10.00187 | 48 ft | 8 kts | 175° |
| 2026-05-05 20:36 | 53.63079 | 10.00189 | 48 ft | 10 kts | 191° |
| 2026-05-05 20:36 | 53.63024 | 10.00136 | 46 ft | 8 kts | 213° |
| 2026-05-05 20:36 | 53.62981 | 10.00089 | 48 ft | 6 kts | 214° |
| 2026-05-05 20:36 | 53.62948 | 10.00051 | 46 ft | 7 kts | 217° |
| 2026-05-05 20:37 | 53.62905 | 9.99948 | 45 ft | 13 kts | 242° |
| 2026-05-05 20:37 | 53.62863 | 9.99803 | 45 ft | 9 kts | 245° |
| 2026-05-05 20:37 | 53.62891 | 9.99726 | 45 ft | 10 kts | 330° |
| 2026-05-05 20:37 | 53.63029 | 9.99605 | 43 ft | 51 kts | 332° |
| 2026-05-05 20:38 | 53.63547 | 9.99157 | 47 ft | 114 kts | 333° |
| 2026-05-05 20:38 | 53.64412 | 9.98409 | 54 ft | 163 kts | 333° |
| 2026-05-05 20:38 | 53.65444 | 9.97543 | 640 ft | 162 kts | 330° |
| 2026-05-05 20:38 | 53.66449 | 9.96679 | 1227 ft | 163 kts | 329° |
| 2026-05-05 20:39 | 53.67503 | 9.95762 | 1510 ft | 181 kts | 329° |
| 2026-05-05 20:39 | 53.68688 | 9.94740 | 1647 ft | 201 kts | 330° |
| 2026-05-05 20:39 | 53.69980 | 9.93630 | 1958 ft | 212 kts | 330° |
| 2026-05-05 20:39 | 53.71137 | 9.92140 | 2479 ft | 210 kts | 301° |
| 2026-05-05 20:40 | 53.71527 | 9.89791 | 2815 ft | 219 kts | 263° |
| 2026-05-05 20:40 | 53.71114 | 9.87196 | 2943 ft | 241 kts | 252° |
| 2026-05-05 20:40 | 53.70555 | 9.84446 | 3557 ft | 251 kts | 251° |
| 2026-05-05 20:40 | 53.69978 | 9.81648 | 4408 ft | 254 kts | 252° |
| 2026-05-05 20:41 | 53.69398 | 9.78814 | 5261 ft | 257 kts | 252° |
| 2026-05-05 20:41 | 53.68818 | 9.75945 | 6088 ft | 260 kts | 252° |
| 2026-05-05 20:41 | 53.68239 | 9.73037 | 6896 ft | 263 kts | 252° |
| 2026-05-05 20:41 | 53.67656 | 9.70092 | 7684 ft | 266 kts | 252° |
| 2026-05-05 20:42 | 53.67070 | 9.67111 | 8457 ft | 270 kts | 252° |
| 2026-05-05 20:42 | 53.66475 | 9.64092 | 9222 ft | 273 kts | 252° |
| 2026-05-05 20:42 | 53.65672 | 9.61174 | 9937 ft | 278 kts | 236° |
| 2026-05-05 20:42 | 53.64299 | 9.58836 | 10636 ft | 287 kts | 217° |
| 2026-05-05 20:43 | 53.62411 | 9.57367 | 10840 ft | 315 kts | 194° |
| 2026-05-05 20:43 | 53.60152 | 9.56853 | 10982 ft | 340 kts | 188° |
| 2026-05-05 20:43 | 53.57724 | 9.56395 | 11153 ft | 360 kts | 188° |
| 2026-05-05 20:43 | 53.55201 | 9.55920 | 11659 ft | 368 kts | 188° |
| 2026-05-05 20:44 | 53.52646 | 9.55437 | 12287 ft | 372 kts | 188° |
| 2026-05-05 20:44 | 53.50069 | 9.54943 | 12915 ft | 375 kts | 189° |
| 2026-05-05 20:44 | 53.47463 | 9.54438 | 13534 ft | 379 kts | 189° |
| 2026-05-05 20:44 | 53.44832 | 9.53918 | 14127 ft | 382 kts | 189° |
| 2026-05-05 20:45 | 53.39505 | 9.52863 | 15277 ft | 388 kts | 189° |
| 2026-05-05 20:45 | 53.36817 | 9.52331 | 15822 ft | 392 kts | 189° |
| 2026-05-05 20:45 | 53.34099 | 9.51797 | 16367 ft | 395 kts | 189° |
| 2026-05-05 20:46 | 53.31361 | 9.51262 | 16866 ft | 398 kts | 189° |
| 2026-05-05 20:46 | 53.28605 | 9.50722 | 17361 ft | 401 kts | 189° |
| 2026-05-05 20:46 | 53.25826 | 9.50180 | 17849 ft | 404 kts | 189° |
| 2026-05-05 20:46 | 53.23031 | 9.49636 | 18329 ft | 406 kts | 189° |
| 2026-05-05 20:47 | 53.20210 | 9.49085 | 18794 ft | 409 kts | 188° |
| 2026-05-05 20:47 | 53.17372 | 9.48532 | 19248 ft | 412 kts | 188° |
| 2026-05-05 20:47 | 53.14509 | 9.47976 | 19695 ft | 415 kts | 188° |
| 2026-05-05 20:47 | 53.11635 | 9.47421 | 20123 ft | 417 kts | 188° |
| 2026-05-05 20:48 | 53.08737 | 9.46861 | 20563 ft | 420 kts | 188° |
| 2026-05-05 20:48 | 53.05828 | 9.46295 | 20973 ft | 423 kts | 188° |
| 2026-05-05 20:48 | 53.02896 | 9.45725 | 21379 ft | 425 kts | 188° |
| 2026-05-05 20:48 | 52.99949 | 9.45154 | 21773 ft | 428 kts | 188° |
| 2026-05-05 20:49 | 52.96989 | 9.44572 | 22158 ft | 430 kts | 189° |
| 2026-05-05 20:49 | 52.94008 | 9.43953 | 22532 ft | 432 kts | 189° |
| 2026-05-05 20:49 | 52.91021 | 9.43309 | 22898 ft | 435 kts | 189° |
| 2026-05-05 20:49 | 52.88012 | 9.42646 | 23248 ft | 437 kts | 189° |
| 2026-05-05 20:50 | 52.84990 | 9.41980 | 23594 ft | 439 kts | 189° |
| 2026-05-05 20:50 | 52.81951 | 9.41316 | 23935 ft | 441 kts | 189° |
| 2026-05-05 20:50 | 52.78898 | 9.40657 | 24272 ft | 444 kts | 189° |
| 2026-05-05 20:50 | 52.75832 | 9.40002 | 24601 ft | 446 kts | 189° |
| 2026-05-05 20:51 | 52.72743 | 9.39347 | 24922 ft | 448 kts | 189° |
| 2026-05-05 20:51 | 52.69642 | 9.38691 | 25234 ft | 450 kts | 189° |
| 2026-05-05 20:51 | 52.66531 | 9.38036 | 25535 ft | 452 kts | 189° |
| 2026-05-05 20:51 | 52.63403 | 9.37381 | 25825 ft | 454 kts | 189° |
| 2026-05-05 20:52 | 52.60270 | 9.36695 | 26106 ft | 456 kts | 190° |
| 2026-05-05 20:52 | 52.57121 | 9.35917 | 26373 ft | 458 kts | 191° |
| 2026-05-05 20:52 | 52.53974 | 9.35077 | 26645 ft | 459 kts | 191° |
| 2026-05-05 20:52 | 52.50810 | 9.34205 | 26910 ft | 461 kts | 191° |
| 2026-05-05 20:53 | 52.47640 | 9.33330 | 27169 ft | 463 kts | 191° |
| 2026-05-05 20:53 | 52.44455 | 9.32460 | 27421 ft | 465 kts | 191° |
| 2026-05-05 20:53 | 52.41257 | 9.31607 | 27670 ft | 467 kts | 191° |
| 2026-05-05 20:53 | 52.38046 | 9.30768 | 27939 ft | 467 kts | 191° |
| 2026-05-05 20:54 | 52.34827 | 9.29936 | 28298 ft | 466 kts | 191° |
| 2026-05-05 20:54 | 52.31626 | 9.29113 | 28640 ft | 466 kts | 191° |
| 2026-05-05 20:54 | 52.28425 | 9.28289 | 28962 ft | 465 kts | 191° |
| 2026-05-05 20:54 | 52.25229 | 9.27461 | 29285 ft | 465 kts | 191° |
| 2026-05-05 20:55 | 52.22038 | 9.26653 | 29609 ft | 465 kts | 190° |
| 2026-05-05 20:55 | 52.18830 | 9.25960 | 29927 ft | 465 kts | 188° |
| 2026-05-05 20:55 | 52.15621 | 9.25378 | 30271 ft | 464 kts | 188° |
| 2026-05-05 20:55 | 52.12415 | 9.24856 | 30599 ft | 463 kts | 187° |
| 2026-05-05 20:56 | 52.09214 | 9.24346 | 30907 ft | 462 kts | 187° |
| 2026-05-05 20:56 | 52.06012 | 9.23816 | 31203 ft | 462 kts | 188° |
| 2026-05-05 20:56 | 52.02828 | 9.23199 | 31509 ft | 461 kts | 189° |
| 2026-05-05 20:56 | 51.99657 | 9.22432 | 31807 ft | 460 kts | 191° |
| 2026-05-05 20:57 | 51.96511 | 9.21569 | 32111 ft | 459 kts | 192° |
| 2026-05-05 20:57 | 51.93362 | 9.20666 | 32398 ft | 459 kts | 192° |
| 2026-05-05 20:57 | 51.90223 | 9.19772 | 32685 ft | 458 kts | 192° |
| 2026-05-05 20:57 | 51.87077 | 9.18916 | 32955 ft | 458 kts | 191° |
| 2026-05-05 20:58 | 51.83929 | 9.18159 | 33250 ft | 458 kts | 189° |
| 2026-05-05 20:58 | 51.80773 | 9.17481 | 33535 ft | 457 kts | 189° |
| 2026-05-05 20:58 | 51.77618 | 9.16844 | 33800 ft | 457 kts | 189° |
| 2026-05-05 20:58 | 51.74460 | 9.16211 | 34069 ft | 456 kts | 189° |
| 2026-05-05 20:59 | 51.71317 | 9.15567 | 34341 ft | 455 kts | 189° |
| 2026-05-05 20:59 | 51.68178 | 9.14909 | 34613 ft | 455 kts | 189° |
| 2026-05-05 20:59 | 51.65048 | 9.14237 | 34868 ft | 454 kts | 189° |
| 2026-05-05 20:59 | 51.61913 | 9.13554 | 34987 ft | 455 kts | 189° |
| 2026-05-05 21:00 | 51.55622 | 9.12178 | 35015 ft | 457 kts | 189° |
| 2026-05-05 21:00 | 51.49318 | 9.10773 | 35010 ft | 457 kts | 191° |
| 2026-05-05 21:01 | 51.43089 | 9.08823 | 35007 ft | 456 kts | 194° |
| 2026-05-05 21:01 | 51.36912 | 9.06537 | 35009 ft | 456 kts | 195° |
| 2026-05-05 21:02 | 51.30711 | 9.04326 | 35007 ft | 457 kts | 192° |
| 2026-05-05 21:02 | 51.24420 | 9.02841 | 35003 ft | 458 kts | 188° |
| 2026-05-05 21:03 | 51.18078 | 9.01802 | 35005 ft | 458 kts | 187° |
| 2026-05-05 21:03 | 51.11731 | 9.00703 | 35003 ft | 458 kts | 188° |
| 2026-05-05 21:04 | 51.05408 | 8.99449 | 35003 ft | 458 kts | 189° |
| 2026-05-05 21:04 | 50.99077 | 8.98147 | 35007 ft | 459 kts | 189° |
| 2026-05-05 21:05 | 50.92746 | 8.96874 | 35013 ft | 458 kts | 189° |
| 2026-05-05 21:05 | 50.86420 | 8.95639 | 35012 ft | 458 kts | 189° |
| 2026-05-05 21:06 | 50.81162 | 8.94616 | 35013 ft | 458 kts | 189° |
| 2026-05-05 21:06 | 50.74840 | 8.93372 | 35014 ft | 458 kts | 189° |
| 2026-05-05 21:07 | 50.68529 | 8.92133 | 35011 ft | 458 kts | 189° |
| 2026-05-05 21:07 | 50.62210 | 8.90894 | 35011 ft | 458 kts | 189° |
| 2026-05-05 21:08 | 50.55875 | 8.89665 | 35014 ft | 458 kts | 189° |
| 2026-05-05 21:08 | 50.49546 | 8.88445 | 35019 ft | 458 kts | 189° |
| 2026-05-05 21:09 | 50.43226 | 8.87222 | 35018 ft | 457 kts | 189° |
| 2026-05-05 21:09 | 50.36909 | 8.86010 | 35017 ft | 457 kts | 189° |
| 2026-05-05 21:10 | 50.30594 | 8.84792 | 35017 ft | 457 kts | 189° |
| 2026-05-05 21:10 | 50.24280 | 8.83574 | 35016 ft | 457 kts | 189° |
| 2026-05-05 21:11 | 50.17971 | 8.82372 | 35016 ft | 457 kts | 189° |
| 2026-05-05 21:11 | 50.11656 | 8.81172 | 35013 ft | 457 kts | 189° |
| 2026-05-05 21:12 | 50.05348 | 8.79968 | 35012 ft | 457 kts | 189° |
| 2026-05-05 21:12 | 49.99042 | 8.78699 | 35011 ft | 457 kts | 189° |
| 2026-05-05 21:13 | 49.92748 | 8.77367 | 35012 ft | 456 kts | 189° |
| 2026-05-05 21:13 | 49.86453 | 8.76041 | 35010 ft | 456 kts | 189° |
| 2026-05-05 21:14 | 49.80157 | 8.74735 | 35002 ft | 456 kts | 189° |
| 2026-05-05 21:14 | 49.73855 | 8.73431 | 35004 ft | 457 kts | 189° |
| 2026-05-05 21:15 | 49.67548 | 8.72142 | 34995 ft | 457 kts | 189° |
| 2026-05-05 21:15 | 49.61234 | 8.70883 | 34997 ft | 457 kts | 189° |
| 2026-05-05 21:16 | 49.54922 | 8.69609 | 35001 ft | 457 kts | 189° |
| 2026-05-05 21:16 | 49.48619 | 8.68336 | 35005 ft | 457 kts | 189° |
| 2026-05-05 21:17 | 49.42318 | 8.67064 | 34999 ft | 457 kts | 189° |
| 2026-05-05 21:17 | 49.36011 | 8.65788 | 35004 ft | 456 kts | 189° |
| 2026-05-05 21:18 | 49.29711 | 8.64514 | 35003 ft | 456 kts | 189° |
| 2026-05-05 21:18 | 49.23413 | 8.63247 | 35006 ft | 457 kts | 189° |
| 2026-05-05 21:19 | 49.17110 | 8.61982 | 35010 ft | 457 kts | 189° |
| 2026-05-05 21:19 | 49.10803 | 8.60725 | 35011 ft | 457 kts | 189° |
| 2026-05-05 21:20 | 49.04498 | 8.59462 | 35009 ft | 457 kts | 189° |
| 2026-05-05 21:20 | 48.98193 | 8.58172 | 35009 ft | 457 kts | 191° |
| 2026-05-05 21:21 | 48.91962 | 8.56318 | 35010 ft | 456 kts | 194° |
| 2026-05-05 21:21 | 48.85786 | 8.54131 | 35011 ft | 456 kts | 195° |
| 2026-05-05 21:22 | 48.79604 | 8.52003 | 34997 ft | 456 kts | 194° |
| 2026-05-05 21:22 | 48.73379 | 8.49999 | 34988 ft | 457 kts | 193° |
| 2026-05-05 21:23 | 48.67183 | 8.48046 | 34995 ft | 458 kts | 193° |
| 2026-05-05 21:23 | 48.60945 | 8.46064 | 34989 ft | 459 kts | 194° |
| 2026-05-05 21:24 | 48.54691 | 8.44066 | 34999 ft | 459 kts | 194° |
| 2026-05-05 21:24 | 48.48435 | 8.42072 | 34996 ft | 459 kts | 194° |
| 2026-05-05 21:25 | 48.42178 | 8.40077 | 34996 ft | 459 kts | 194° |
| 2026-05-05 21:25 | 48.35931 | 8.38092 | 35011 ft | 459 kts | 193° |
| 2026-05-05 21:26 | 48.29666 | 8.36110 | 35012 ft | 459 kts | 194° |
| 2026-05-05 21:26 | 48.23412 | 8.34136 | 35012 ft | 459 kts | 193° |
| 2026-05-05 21:27 | 48.17254 | 8.31730 | 35007 ft | 456 kts | 204° |
| 2026-05-05 21:27 | 48.11732 | 8.27029 | 35004 ft | 454 kts | 214° |
| 2026-05-05 21:28 | 48.06464 | 8.21937 | 34987 ft | 454 kts | 214° |
| 2026-05-05 21:28 | 48.01139 | 8.16819 | 34994 ft | 455 kts | 214° |
| 2026-05-05 21:29 | 47.95811 | 8.11710 | 34997 ft | 456 kts | 214° |
| 2026-05-05 21:29 | 47.90469 | 8.06605 | 35001 ft | 456 kts | 214° |
| 2026-05-05 21:30 | 47.85122 | 8.01506 | 34998 ft | 457 kts | 214° |
| 2026-05-05 21:30 | 47.79764 | 7.96402 | 35001 ft | 457 kts | 214° |
| 2026-05-05 21:31 | 47.74381 | 7.91269 | 35013 ft | 457 kts | 214° |
| 2026-05-05 21:31 | 47.69023 | 7.86182 | 35015 ft | 456 kts | 214° |
| 2026-05-05 21:32 | 47.63700 | 7.81156 | 35028 ft | 456 kts | 214° |
| 2026-05-05 21:32 | 47.58357 | 7.76130 | 35029 ft | 455 kts | 214° |
| 2026-05-05 21:33 | 47.53021 | 7.71104 | 35029 ft | 454 kts | 214° |
| 2026-05-05 21:33 | 47.47661 | 7.66068 | 35021 ft | 453 kts | 214° |
| 2026-05-05 21:34 | 47.42366 | 7.61105 | 35014 ft | 454 kts | 214° |
| 2026-05-05 21:34 | 47.37023 | 7.56118 | 35014 ft | 454 kts | 214° |
| 2026-05-05 21:35 | 47.31675 | 7.51142 | 35007 ft | 455 kts | 214° |
| 2026-05-05 21:35 | 47.26322 | 7.46163 | 34996 ft | 456 kts | 214° |
| 2026-05-05 21:36 | 47.20958 | 7.41183 | 35003 ft | 456 kts | 214° |
| 2026-05-05 21:36 | 47.17003 | 7.37147 | 35012 ft | 454 kts | 223° |
| 2026-05-05 21:37 | 47.12836 | 7.30265 | 35017 ft | 450 kts | 233° |
| 2026-05-05 21:37 | 47.08938 | 7.23073 | 35019 ft | 450 kts | 232° |
| 2026-05-05 21:38 | 47.05021 | 7.15905 | 35016 ft | 450 kts | 232° |
| 2026-05-05 21:38 | 47.01110 | 7.08747 | 35014 ft | 450 kts | 232° |
| 2026-05-05 21:39 | 46.97205 | 7.01596 | 35013 ft | 450 kts | 232° |
| 2026-05-05 21:39 | 46.93287 | 6.94452 | 35012 ft | 449 kts | 232° |
| 2026-05-05 21:40 | 46.88923 | 6.87919 | 35014 ft | 451 kts | 220° |
| 2026-05-05 21:40 | 46.84046 | 6.82124 | 35006 ft | 451 kts | 220° |
| 2026-05-05 21:41 | 46.79179 | 6.76348 | 35291 ft | 450 kts | 220° |
| 2026-05-05 21:41 | 46.76749 | 6.73462 | 35540 ft | 450 kts | 220° |
| 2026-05-05 21:41 | 46.74305 | 6.70616 | 35789 ft | 450 kts | 216° |
| 2026-05-05 21:42 | 46.71549 | 6.68447 | 35965 ft | 453 kts | 203° |
| 2026-05-05 21:42 | 46.68610 | 6.66762 | 36009 ft | 454 kts | 203° |
| 2026-05-05 21:42 | 46.62706 | 6.63475 | 36008 ft | 454 kts | 202° |
| 2026-05-05 21:43 | 46.56783 | 6.60225 | 36007 ft | 454 kts | 202° |
| 2026-05-05 21:43 | 46.50877 | 6.56963 | 36009 ft | 453 kts | 202° |
| 2026-05-05 21:44 | 46.45984 | 6.54252 | 36008 ft | 453 kts | 202° |
| 2026-05-05 21:44 | 46.39148 | 6.50463 | 36009 ft | 452 kts | 202° |
| 2026-05-05 21:45 | 46.34210 | 6.47744 | 36004 ft | 453 kts | 202° |
| 2026-05-05 21:45 | 46.28322 | 6.44517 | 36000 ft | 453 kts | 202° |
| 2026-05-05 21:46 | 46.22423 | 6.41280 | 35984 ft | 454 kts | 202° |
| 2026-05-05 21:46 | 46.16512 | 6.38048 | 35996 ft | 454 kts | 202° |
| 2026-05-05 21:47 | 46.10633 | 6.34842 | 36001 ft | 454 kts | 202° |
| 2026-05-05 21:47 | 46.04722 | 6.31623 | 36001 ft | 454 kts | 202° |
| 2026-05-05 21:48 | 45.98777 | 6.28388 | 35994 ft | 454 kts | 202° |
| 2026-05-05 21:48 | 45.92857 | 6.25173 | 35978 ft | 455 kts | 202° |
| 2026-05-05 21:49 | 45.86917 | 6.21957 | 36000 ft | 456 kts | 202° |
| 2026-05-05 21:49 | 45.81012 | 6.18781 | 36009 ft | 455 kts | 202° |
| 2026-05-05 21:50 | 45.75079 | 6.15596 | 35992 ft | 456 kts | 202° |
| 2026-05-05 21:50 | 45.69135 | 6.12400 | 36002 ft | 456 kts | 202° |
| 2026-05-05 21:51 | 45.63188 | 6.09206 | 36002 ft | 456 kts | 202° |
| 2026-05-05 21:51 | 45.57232 | 6.06017 | 35996 ft | 456 kts | 202° |
| 2026-05-05 21:52 | 45.48308 | 6.01262 | 36011 ft | 456 kts | 202° |
| 2026-05-05 21:53 | 45.42369 | 5.98113 | 36024 ft | 455 kts | 202° |